sensor_id;sensor_type;location;lat;lon;timestamp;P1;durP1;ratioP1;P2;durP2;ratioP2
12585;SDS011;6358;50.760;0.282;2024-03-02T00:02:15;6.50;;;2.50;;
12585;SDS011;6358;50.760;0.282;2024-03-02T00:04:44;4.73;;;2.43;;
12585;SDS011;6358;50.760;0.282;2024-03-02T00:07:10;5.20;;;2.30;;
12585;SDS011;6358;50.760;0.282;2024-03-02T00:09:39;4.03;;;2.10;;
12585;SDS011;6358;50.760;0.282;2024-03-02T00:12:05;4.00;;;2.27;;
12585;SDS011;6358;50.760;0.282;2024-03-02T00:14:31;4.97;;;2.30;;
12585;SDS011;6358;50.760;0.282;2024-03-02T00:16:57;4.07;;;2.20;;
12585;SDS011;6358;50.760;0.282;2024-03-02T00:19:24;4.30;;;2.10;;
12585;SDS011;6358;50.760;0.282;2024-03-02T00:21:51;4.33;;;2.00;;
12585;SDS011;6358;50.760;0.282;2024-03-02T00:24:21;4.37;;;1.87;;
12585;SDS011;6358;50.760;0.282;2024-03-02T00:26:47;3.67;;;1.90;;
12585;SDS011;6358;50.760;0.282;2024-03-02T00:29:16;5.07;;;2.13;;
12585;SDS011;6358;50.760;0.282;2024-03-02T00:31:45;4.57;;;2.20;;
12585;SDS011;6358;50.760;0.282;2024-03-02T00:34:11;4.93;;;2.23;;
12585;SDS011;6358;50.760;0.282;2024-03-02T00:36:41;3.83;;;2.10;;
12585;SDS011;6358;50.760;0.282;2024-03-02T00:39:07;4.23;;;2.13;;
12585;SDS011;6358;50.760;0.282;2024-03-02T00:41:33;3.60;;;2.10;;
12585;SDS011;6358;50.760;0.282;2024-03-02T00:44:01;3.53;;;2.03;;
12585;SDS011;6358;50.760;0.282;2024-03-02T00:46:30;3.83;;;1.93;;
12585;SDS011;6358;50.760;0.282;2024-03-02T00:48:59;3.63;;;1.90;;
12585;SDS011;6358;50.760;0.282;2024-03-02T00:51:32;4.77;;;2.03;;
12585;SDS011;6358;50.760;0.282;2024-03-02T00:53:59;4.70;;;2.37;;
12585;SDS011;6358;50.760;0.282;2024-03-02T00:56:26;4.87;;;1.87;;
12585;SDS011;6358;50.760;0.282;2024-03-02T00:58:52;3.90;;;2.00;;
12585;SDS011;6358;50.760;0.282;2024-03-02T01:01:18;3.00;;;1.87;;
12585;SDS011;6358;50.760;0.282;2024-03-02T01:03:45;3.90;;;1.90;;
12585;SDS011;6358;50.760;0.282;2024-03-02T01:06:11;4.17;;;1.83;;
12585;SDS011;6358;50.760;0.282;2024-03-02T01:08:38;3.80;;;1.70;;
12585;SDS011;6358;50.760;0.282;2024-03-02T01:11:04;3.37;;;1.80;;
12585;SDS011;6358;50.760;0.282;2024-03-02T01:13:30;4.10;;;2.00;;
12585;SDS011;6358;50.760;0.282;2024-03-02T01:15:56;2.73;;;1.57;;
12585;SDS011;6358;50.760;0.282;2024-03-02T01:18:23;3.73;;;1.60;;
12585;SDS011;6358;50.760;0.282;2024-03-02T01:20:50;3.43;;;1.80;;
12585;SDS011;6358;50.760;0.282;2024-03-02T01:23:24;4.53;;;1.90;;
12585;SDS011;6358;50.760;0.282;2024-03-02T01:25:51;4.07;;;2.00;;
12585;SDS011;6358;50.760;0.282;2024-03-02T01:28:18;3.53;;;1.90;;
12585;SDS011;6358;50.760;0.282;2024-03-02T01:30:45;3.80;;;1.80;;
12585;SDS011;6358;50.760;0.282;2024-03-02T01:33:12;4.90;;;1.80;;
12585;SDS011;6358;50.760;0.282;2024-03-02T01:35:38;2.03;;;1.30;;
12585;SDS011;6358;50.760;0.282;2024-03-02T01:38:04;3.40;;;1.63;;
12585;SDS011;6358;50.760;0.282;2024-03-02T01:40:32;3.57;;;1.73;;
12585;SDS011;6358;50.760;0.282;2024-03-02T01:42:58;3.93;;;1.90;;
12585;SDS011;6358;50.760;0.282;2024-03-02T01:45:24;3.40;;;1.87;;
12585;SDS011;6358;50.760;0.282;2024-03-02T01:47:50;4.60;;;1.80;;
12585;SDS011;6358;50.760;0.282;2024-03-02T01:50:24;2.57;;;1.47;;
12585;SDS011;6358;50.760;0.282;2024-03-02T01:52:50;4.20;;;1.77;;
12585;SDS011;6358;50.760;0.282;2024-03-02T01:55:17;4.20;;;1.87;;
12585;SDS011;6358;50.760;0.282;2024-03-02T01:57:43;4.77;;;1.60;;
12585;SDS011;6358;50.760;0.282;2024-03-02T02:00:10;5.00;;;1.80;;
12585;SDS011;6358;50.760;0.282;2024-03-02T02:02:36;2.90;;;1.67;;
12585;SDS011;6358;50.760;0.282;2024-03-02T02:05:02;4.40;;;1.70;;
12585;SDS011;6358;50.760;0.282;2024-03-02T02:07:29;2.83;;;1.40;;
12585;SDS011;6358;50.760;0.282;2024-03-02T02:09:56;5.47;;;1.67;;
12585;SDS011;6358;50.760;0.282;2024-03-02T02:12:22;4.47;;;2.00;;
12585;SDS011;6358;50.760;0.282;2024-03-02T02:14:48;3.23;;;1.77;;
12585;SDS011;6358;50.760;0.282;2024-03-02T02:17:15;4.63;;;1.90;;
12585;SDS011;6358;50.760;0.282;2024-03-02T02:19:41;4.20;;;1.93;;
12585;SDS011;6358;50.760;0.282;2024-03-02T02:22:08;4.07;;;1.90;;
12585;SDS011;6358;50.760;0.282;2024-03-02T02:24:34;4.07;;;1.73;;
12585;SDS011;6358;50.760;0.282;2024-03-02T02:27:00;2.73;;;1.80;;
12585;SDS011;6358;50.760;0.282;2024-03-02T02:29:27;4.40;;;1.63;;
12585;SDS011;6358;50.760;0.282;2024-03-02T02:31:53;5.13;;;1.73;;
12585;SDS011;6358;50.760;0.282;2024-03-02T02:34:19;3.63;;;1.70;;
12585;SDS011;6358;50.760;0.282;2024-03-02T02:36:45;4.07;;;1.83;;
12585;SDS011;6358;50.760;0.282;2024-03-02T02:39:13;4.13;;;2.00;;
12585;SDS011;6358;50.760;0.282;2024-03-02T02:41:39;4.67;;;1.90;;
12585;SDS011;6358;50.760;0.282;2024-03-02T02:44:05;5.63;;;1.90;;
12585;SDS011;6358;50.760;0.282;2024-03-02T02:46:31;4.80;;;1.80;;
12585;SDS011;6358;50.760;0.282;2024-03-02T02:48:58;4.40;;;1.70;;
12585;SDS011;6358;50.760;0.282;2024-03-02T02:51:24;4.50;;;1.80;;
12585;SDS011;6358;50.760;0.282;2024-03-02T02:53:53;4.73;;;2.03;;
12585;SDS011;6358;50.760;0.282;2024-03-02T02:56:19;5.90;;;2.13;;
12585;SDS011;6358;50.760;0.282;2024-03-02T02:58:45;4.87;;;1.93;;
12585;SDS011;6358;50.760;0.282;2024-03-02T03:01:11;3.60;;;1.70;;
12585;SDS011;6358;50.760;0.282;2024-03-02T03:03:37;3.57;;;1.43;;
12585;SDS011;6358;50.760;0.282;2024-03-02T03:06:03;3.93;;;1.93;;
12585;SDS011;6358;50.760;0.282;2024-03-02T03:08:29;5.30;;;2.03;;
12585;SDS011;6358;50.760;0.282;2024-03-02T03:10:55;5.97;;;2.17;;
12585;SDS011;6358;50.760;0.282;2024-03-02T03:13:21;5.97;;;2.00;;
12585;SDS011;6358;50.760;0.282;2024-03-02T03:15:48;5.57;;;1.90;;
12585;SDS011;6358;50.760;0.282;2024-03-02T03:18:14;4.10;;;1.90;;
12585;SDS011;6358;50.760;0.282;2024-03-02T03:20:40;3.53;;;1.80;;
12585;SDS011;6358;50.760;0.282;2024-03-02T03:23:06;3.57;;;1.57;;
12585;SDS011;6358;50.760;0.282;2024-03-02T03:25:32;4.20;;;1.97;;
12585;SDS011;6358;50.760;0.282;2024-03-02T03:27:58;4.03;;;1.97;;
12585;SDS011;6358;50.760;0.282;2024-03-02T03:30:24;5.83;;;1.77;;
12585;SDS011;6358;50.760;0.282;2024-03-02T03:32:51;4.20;;;1.60;;
12585;SDS011;6358;50.760;0.282;2024-03-02T03:35:17;5.27;;;2.03;;
12585;SDS011;6358;50.760;0.282;2024-03-02T03:37:43;4.93;;;1.97;;
12585;SDS011;6358;50.760;0.282;2024-03-02T03:40:09;4.70;;;1.93;;
12585;SDS011;6358;50.760;0.282;2024-03-02T03:42:36;4.03;;;2.20;;
12585;SDS011;6358;50.760;0.282;2024-03-02T03:45:03;3.90;;;1.80;;
12585;SDS011;6358;50.760;0.282;2024-03-02T03:47:31;4.47;;;1.77;;
12585;SDS011;6358;50.760;0.282;2024-03-02T03:49:57;3.27;;;1.70;;
12585;SDS011;6358;50.760;0.282;2024-03-02T03:52:23;3.47;;;1.60;;
12585;SDS011;6358;50.760;0.282;2024-03-02T03:54:49;4.43;;;1.77;;
12585;SDS011;6358;50.760;0.282;2024-03-02T03:57:15;5.83;;;1.93;;
12585;SDS011;6358;50.760;0.282;2024-03-02T03:59:41;4.27;;;2.00;;
12585;SDS011;6358;50.760;0.282;2024-03-02T04:02:08;3.87;;;1.80;;
12585;SDS011;6358;50.760;0.282;2024-03-02T04:04:34;3.37;;;1.90;;
12585;SDS011;6358;50.760;0.282;2024-03-02T04:07:00;4.17;;;1.93;;
12585;SDS011;6358;50.760;0.282;2024-03-02T04:09:26;4.87;;;2.00;;
12585;SDS011;6358;50.760;0.282;2024-03-02T04:11:53;5.30;;;2.33;;
12585;SDS011;6358;50.760;0.282;2024-03-02T04:14:19;5.07;;;1.93;;
12585;SDS011;6358;50.760;0.282;2024-03-02T04:16:45;5.17;;;2.20;;
12585;SDS011;6358;50.760;0.282;2024-03-02T04:19:11;5.53;;;2.07;;
12585;SDS011;6358;50.760;0.282;2024-03-02T04:21:37;5.90;;;2.00;;
12585;SDS011;6358;50.760;0.282;2024-03-02T04:24:03;4.23;;;1.90;;
12585;SDS011;6358;50.760;0.282;2024-03-02T04:26:29;4.53;;;1.80;;
12585;SDS011;6358;50.760;0.282;2024-03-02T04:28:55;5.13;;;2.07;;
12585;SDS011;6358;50.760;0.282;2024-03-02T04:31:22;5.00;;;2.17;;
12585;SDS011;6358;50.760;0.282;2024-03-02T04:33:48;3.77;;;1.83;;
12585;SDS011;6358;50.760;0.282;2024-03-02T04:36:14;5.50;;;1.90;;
12585;SDS011;6358;50.760;0.282;2024-03-02T04:38:40;4.57;;;2.00;;
12585;SDS011;6358;50.760;0.282;2024-03-02T04:41:06;2.57;;;1.60;;
12585;SDS011;6358;50.760;0.282;2024-03-02T04:43:32;3.50;;;1.83;;
12585;SDS011;6358;50.760;0.282;2024-03-02T04:45:59;5.77;;;2.10;;
12585;SDS011;6358;50.760;0.282;2024-03-02T04:48:25;4.73;;;2.03;;
12585;SDS011;6358;50.760;0.282;2024-03-02T04:50:52;4.47;;;1.97;;
12585;SDS011;6358;50.760;0.282;2024-03-02T04:53:18;4.63;;;2.10;;
12585;SDS011;6358;50.760;0.282;2024-03-02T04:55:44;5.17;;;2.40;;
12585;SDS011;6358;50.760;0.282;2024-03-02T04:58:19;6.20;;;2.00;;
12585;SDS011;6358;50.760;0.282;2024-03-02T05:00:45;4.67;;;2.07;;
12585;SDS011;6358;50.760;0.282;2024-03-02T05:03:12;3.40;;;2.10;;
12585;SDS011;6358;50.760;0.282;2024-03-02T05:05:38;5.60;;;2.20;;
12585;SDS011;6358;50.760;0.282;2024-03-02T05:08:04;5.00;;;2.20;;
12585;SDS011;6358;50.760;0.282;2024-03-02T05:10:31;5.67;;;2.53;;
12585;SDS011;6358;50.760;0.282;2024-03-02T05:12:57;4.13;;;2.00;;
12585;SDS011;6358;50.760;0.282;2024-03-02T05:15:24;3.90;;;1.90;;
12585;SDS011;6358;50.760;0.282;2024-03-02T05:17:51;4.30;;;2.33;;
12585;SDS011;6358;50.760;0.282;2024-03-02T05:20:17;3.43;;;2.03;;
12585;SDS011;6358;50.760;0.282;2024-03-02T05:22:43;4.80;;;2.10;;
12585;SDS011;6358;50.760;0.282;2024-03-02T05:25:10;4.47;;;2.00;;
12585;SDS011;6358;50.760;0.282;2024-03-02T05:27:36;5.40;;;2.30;;
12585;SDS011;6358;50.760;0.282;2024-03-02T05:30:02;4.57;;;1.90;;
12585;SDS011;6358;50.760;0.282;2024-03-02T05:32:31;5.53;;;2.30;;
12585;SDS011;6358;50.760;0.282;2024-03-02T05:34:57;5.43;;;2.30;;
12585;SDS011;6358;50.760;0.282;2024-03-02T05:37:23;5.07;;;2.40;;
12585;SDS011;6358;50.760;0.282;2024-03-02T05:39:49;4.57;;;2.40;;
12585;SDS011;6358;50.760;0.282;2024-03-02T05:42:15;4.70;;;2.03;;
12585;SDS011;6358;50.760;0.282;2024-03-02T05:44:44;4.37;;;2.23;;
12585;SDS011;6358;50.760;0.282;2024-03-02T05:47:10;6.53;;;2.20;;
12585;SDS011;6358;50.760;0.282;2024-03-02T05:49:36;5.83;;;2.20;;
12585;SDS011;6358;50.760;0.282;2024-03-02T05:52:02;6.03;;;2.20;;
12585;SDS011;6358;50.760;0.282;2024-03-02T05:54:29;5.23;;;2.00;;
12585;SDS011;6358;50.760;0.282;2024-03-02T05:56:55;4.93;;;2.30;;
12585;SDS011;6358;50.760;0.282;2024-03-02T05:59:21;5.63;;;2.20;;
12585;SDS011;6358;50.760;0.282;2024-03-02T06:01:47;5.67;;;2.07;;
12585;SDS011;6358;50.760;0.282;2024-03-02T06:04:16;6.67;;;2.57;;
12585;SDS011;6358;50.760;0.282;2024-03-02T06:06:43;6.13;;;2.37;;
12585;SDS011;6358;50.760;0.282;2024-03-02T06:09:09;5.50;;;2.03;;
12585;SDS011;6358;50.760;0.282;2024-03-02T06:11:40;7.30;;;2.87;;
12585;SDS011;6358;50.760;0.282;2024-03-02T06:14:07;6.63;;;2.50;;
12585;SDS011;6358;50.760;0.282;2024-03-02T06:16:34;9.50;;;2.47;;
12585;SDS011;6358;50.760;0.282;2024-03-02T06:19:00;5.40;;;2.20;;
12585;SDS011;6358;50.760;0.282;2024-03-02T06:21:27;6.13;;;2.37;;
12585;SDS011;6358;50.760;0.282;2024-03-02T06:23:53;6.60;;;2.20;;
12585;SDS011;6358;50.760;0.282;2024-03-02T06:26:20;5.80;;;2.30;;
12585;SDS011;6358;50.760;0.282;2024-03-02T06:28:46;6.80;;;2.83;;
12585;SDS011;6358;50.760;0.282;2024-03-02T06:31:12;6.67;;;2.23;;
12585;SDS011;6358;50.760;0.282;2024-03-02T06:33:39;5.73;;;2.73;;
12585;SDS011;6358;50.760;0.282;2024-03-02T06:36:06;6.20;;;2.40;;
12585;SDS011;6358;50.760;0.282;2024-03-02T06:38:36;7.47;;;2.43;;
12585;SDS011;6358;50.760;0.282;2024-03-02T06:41:04;6.97;;;2.27;;
12585;SDS011;6358;50.760;0.282;2024-03-02T06:43:30;6.30;;;2.37;;
12585;SDS011;6358;50.760;0.282;2024-03-02T06:45:56;5.73;;;2.60;;
12585;SDS011;6358;50.760;0.282;2024-03-02T06:48:22;4.87;;;2.30;;
12585;SDS011;6358;50.760;0.282;2024-03-02T06:50:49;5.87;;;2.27;;
12585;SDS011;6358;50.760;0.282;2024-03-02T06:53:17;4.63;;;2.60;;
12585;SDS011;6358;50.760;0.282;2024-03-02T06:55:44;4.57;;;1.97;;
12585;SDS011;6358;50.760;0.282;2024-03-02T06:58:11;5.03;;;2.30;;
12585;SDS011;6358;50.760;0.282;2024-03-02T07:00:37;3.87;;;1.90;;
12585;SDS011;6358;50.760;0.282;2024-03-02T07:03:03;6.57;;;2.37;;
12585;SDS011;6358;50.760;0.282;2024-03-02T07:05:30;6.17;;;2.40;;
12585;SDS011;6358;50.760;0.282;2024-03-02T07:07:56;5.90;;;2.77;;
12585;SDS011;6358;50.760;0.282;2024-03-02T07:10:22;6.27;;;2.50;;
12585;SDS011;6358;50.760;0.282;2024-03-02T07:12:48;3.70;;;1.87;;
12585;SDS011;6358;50.760;0.282;2024-03-02T07:15:14;5.77;;;2.40;;
12585;SDS011;6358;50.760;0.282;2024-03-02T07:17:52;4.70;;;2.17;;
12585;SDS011;6358;50.760;0.282;2024-03-02T07:20:18;6.83;;;2.50;;
12585;SDS011;6358;50.760;0.282;2024-03-02T07:22:44;5.57;;;2.20;;
12585;SDS011;6358;50.760;0.282;2024-03-02T07:25:11;6.50;;;2.20;;
12585;SDS011;6358;50.760;0.282;2024-03-02T07:27:37;4.17;;;1.80;;
12585;SDS011;6358;50.760;0.282;2024-03-02T07:30:04;5.23;;;2.10;;
12585;SDS011;6358;50.760;0.282;2024-03-02T07:32:30;5.43;;;2.20;;
12585;SDS011;6358;50.760;0.282;2024-03-02T07:34:56;5.57;;;2.30;;
12585;SDS011;6358;50.760;0.282;2024-03-02T07:37:23;6.13;;;2.20;;
12585;SDS011;6358;50.760;0.282;2024-03-02T07:39:49;6.60;;;2.20;;
12585;SDS011;6358;50.760;0.282;2024-03-02T07:42:15;6.13;;;2.27;;
12585;SDS011;6358;50.760;0.282;2024-03-02T07:44:41;4.53;;;1.97;;
12585;SDS011;6358;50.760;0.282;2024-03-02T07:47:07;6.83;;;2.20;;
12585;SDS011;6358;50.760;0.282;2024-03-02T07:49:34;6.93;;;2.50;;
12585;SDS011;6358;50.760;0.282;2024-03-02T07:52:00;7.60;;;2.00;;
12585;SDS011;6358;50.760;0.282;2024-03-02T07:54:26;6.20;;;2.10;;
12585;SDS011;6358;50.760;0.282;2024-03-02T07:56:52;6.53;;;2.40;;
12585;SDS011;6358;50.760;0.282;2024-03-02T07:59:18;6.50;;;2.40;;
12585;SDS011;6358;50.760;0.282;2024-03-02T08:01:45;5.73;;;2.27;;
12585;SDS011;6358;50.760;0.282;2024-03-02T08:04:12;5.77;;;2.70;;
12585;SDS011;6358;50.760;0.282;2024-03-02T08:06:39;9.87;;;3.10;;
12585;SDS011;6358;50.760;0.282;2024-03-02T08:09:05;8.60;;;3.10;;
12585;SDS011;6358;50.760;0.282;2024-03-02T08:11:34;9.53;;;3.13;;
12585;SDS011;6358;50.760;0.282;2024-03-02T08:14:01;6.90;;;2.90;;
12585;SDS011;6358;50.760;0.282;2024-03-02T08:16:27;8.03;;;2.93;;
12585;SDS011;6358;50.760;0.282;2024-03-02T08:18:53;9.43;;;3.20;;
12585;SDS011;6358;50.760;0.282;2024-03-02T08:21:19;9.63;;;3.40;;
12585;SDS011;6358;50.760;0.282;2024-03-02T08:23:46;9.00;;;3.20;;
12585;SDS011;6358;50.760;0.282;2024-03-02T08:26:12;9.37;;;3.13;;
12585;SDS011;6358;50.760;0.282;2024-03-02T08:28:38;8.13;;;3.27;;
12585;SDS011;6358;50.760;0.282;2024-03-02T08:31:07;11.40;;;3.40;;
12585;SDS011;6358;50.760;0.282;2024-03-02T08:33:34;9.60;;;3.73;;
12585;SDS011;6358;50.760;0.282;2024-03-02T08:36:00;7.77;;;2.87;;
12585;SDS011;6358;50.760;0.282;2024-03-02T08:38:27;6.97;;;3.20;;
12585;SDS011;6358;50.760;0.282;2024-03-02T08:40:54;10.47;;;3.30;;
12585;SDS011;6358;50.760;0.282;2024-03-02T08:43:20;11.67;;;3.43;;
12585;SDS011;6358;50.760;0.282;2024-03-02T08:45:47;8.37;;;3.70;;
12585;SDS011;6358;50.760;0.282;2024-03-02T08:48:14;8.40;;;3.47;;
12585;SDS011;6358;50.760;0.282;2024-03-02T08:50:40;12.03;;;3.60;;
12585;SDS011;6358;50.760;0.282;2024-03-02T08:53:06;10.67;;;3.20;;
12585;SDS011;6358;50.760;0.282;2024-03-02T08:55:32;11.57;;;3.30;;
12585;SDS011;6358;50.760;0.282;2024-03-02T08:57:59;10.33;;;3.23;;
12585;SDS011;6358;50.760;0.282;2024-03-02T09:00:25;8.03;;;2.97;;
12585;SDS011;6358;50.760;0.282;2024-03-02T09:02:52;8.40;;;2.90;;
12585;SDS011;6358;50.760;0.282;2024-03-02T09:05:18;7.67;;;2.70;;
12585;SDS011;6358;50.760;0.282;2024-03-02T09:07:44;7.57;;;2.93;;
12585;SDS011;6358;50.760;0.282;2024-03-02T09:10:10;8.33;;;3.23;;
12585;SDS011;6358;50.760;0.282;2024-03-02T09:12:37;12.97;;;3.17;;
12585;SDS011;6358;50.760;0.282;2024-03-02T09:15:04;7.90;;;2.97;;
12585;SDS011;6358;50.760;0.282;2024-03-02T09:17:31;7.43;;;2.73;;
12585;SDS011;6358;50.760;0.282;2024-03-02T09:19:57;9.60;;;3.10;;
12585;SDS011;6358;50.760;0.282;2024-03-02T09:22:23;7.60;;;3.10;;
12585;SDS011;6358;50.760;0.282;2024-03-02T09:24:49;7.90;;;2.77;;
12585;SDS011;6358;50.760;0.282;2024-03-02T09:27:15;7.67;;;3.10;;
12585;SDS011;6358;50.760;0.282;2024-03-02T09:29:42;8.97;;;3.00;;
12585;SDS011;6358;50.760;0.282;2024-03-02T09:32:08;10.67;;;3.20;;
12585;SDS011;6358;50.760;0.282;2024-03-02T09:34:37;11.00;;;3.03;;
12585;SDS011;6358;50.760;0.282;2024-03-02T09:37:03;6.53;;;2.67;;
12585;SDS011;6358;50.760;0.282;2024-03-02T09:39:30;9.63;;;2.60;;
12585;SDS011;6358;50.760;0.282;2024-03-02T09:41:59;8.53;;;3.20;;
12585;SDS011;6358;50.760;0.282;2024-03-02T09:44:29;8.73;;;2.90;;
12585;SDS011;6358;50.760;0.282;2024-03-02T09:46:55;7.20;;;2.97;;
12585;SDS011;6358;50.760;0.282;2024-03-02T09:49:21;5.67;;;2.47;;
12585;SDS011;6358;50.760;0.282;2024-03-02T09:51:48;5.60;;;2.57;;
12585;SDS011;6358;50.760;0.282;2024-03-02T09:54:17;5.87;;;2.47;;
12585;SDS011;6358;50.760;0.282;2024-03-02T09:56:44;7.37;;;2.73;;
12585;SDS011;6358;50.760;0.282;2024-03-02T09:59:10;8.40;;;2.60;;
12585;SDS011;6358;50.760;0.282;2024-03-02T10:01:37;7.53;;;2.93;;
12585;SDS011;6358;50.760;0.282;2024-03-02T10:04:03;7.87;;;2.70;;
12585;SDS011;6358;50.760;0.282;2024-03-02T10:06:31;7.93;;;2.77;;
12585;SDS011;6358;50.760;0.282;2024-03-02T10:08:57;6.97;;;2.90;;
12585;SDS011;6358;50.760;0.282;2024-03-02T10:11:25;6.37;;;2.70;;
12585;SDS011;6358;50.760;0.282;2024-03-02T10:14:04;5.70;;;2.67;;
12585;SDS011;6358;50.760;0.282;2024-03-02T10:16:36;6.90;;;2.80;;
12585;SDS011;6358;50.760;0.282;2024-03-02T10:19:18;6.80;;;2.70;;
12585;SDS011;6358;50.760;0.282;2024-03-02T10:21:48;5.67;;;2.90;;
12585;SDS011;6358;50.760;0.282;2024-03-02T10:24:15;6.27;;;2.50;;
12585;SDS011;6358;50.760;0.282;2024-03-02T10:26:41;6.93;;;2.13;;
12585;SDS011;6358;50.760;0.282;2024-03-02T10:29:08;6.63;;;2.63;;
12585;SDS011;6358;50.760;0.282;2024-03-02T10:31:38;8.73;;;2.60;;
12585;SDS011;6358;50.760;0.282;2024-03-02T10:34:05;8.43;;;3.00;;
12585;SDS011;6358;50.760;0.282;2024-03-02T10:36:32;6.67;;;2.50;;
12585;SDS011;6358;50.760;0.282;2024-03-02T10:39:01;8.90;;;2.67;;
12585;SDS011;6358;50.760;0.282;2024-03-02T10:41:27;5.83;;;2.53;;
12585;SDS011;6358;50.760;0.282;2024-03-02T10:43:54;6.50;;;2.77;;
12585;SDS011;6358;50.760;0.282;2024-03-02T10:46:26;4.20;;;2.23;;
12585;SDS011;6358;50.760;0.282;2024-03-02T10:48:56;7.03;;;2.53;;
12585;SDS011;6358;50.760;0.282;2024-03-02T10:51:26;5.97;;;2.50;;
12585;SDS011;6358;50.760;0.282;2024-03-02T10:53:54;5.43;;;2.87;;
12585;SDS011;6358;50.760;0.282;2024-03-02T10:56:30;5.07;;;2.17;;
12585;SDS011;6358;50.760;0.282;2024-03-02T11:01:46;8.37;;;2.50;;
12585;SDS011;6358;50.760;0.282;2024-03-02T11:04:13;6.33;;;2.83;;
12585;SDS011;6358;50.760;0.282;2024-03-02T11:06:40;5.03;;;2.23;;
12585;SDS011;6358;50.760;0.282;2024-03-02T11:09:09;4.67;;;2.37;;
12585;SDS011;6358;50.760;0.282;2024-03-02T11:11:37;7.83;;;2.67;;
12585;SDS011;6358;50.760;0.282;2024-03-02T11:14:07;6.60;;;2.37;;
12585;SDS011;6358;50.760;0.282;2024-03-02T11:16:34;7.83;;;2.63;;
12585;SDS011;6358;50.760;0.282;2024-03-02T11:19:04;8.50;;;2.60;;
12585;SDS011;6358;50.760;0.282;2024-03-02T11:21:32;6.67;;;2.60;;
12585;SDS011;6358;50.760;0.282;2024-03-02T11:23:58;6.83;;;2.30;;
12585;SDS011;6358;50.760;0.282;2024-03-02T11:26:24;5.07;;;2.20;;
12585;SDS011;6358;50.760;0.282;2024-03-02T11:28:53;5.63;;;2.27;;
12585;SDS011;6358;50.760;0.282;2024-03-02T11:31:21;5.63;;;2.47;;
12585;SDS011;6358;50.760;0.282;2024-03-02T11:33:47;4.97;;;2.40;;
12585;SDS011;6358;50.760;0.282;2024-03-02T11:36:13;5.60;;;2.23;;
12585;SDS011;6358;50.760;0.282;2024-03-02T11:38:39;4.70;;;2.53;;
12585;SDS011;6358;50.760;0.282;2024-03-02T11:41:10;6.60;;;2.60;;
12585;SDS011;6358;50.760;0.282;2024-03-02T11:43:37;5.40;;;2.40;;
12585;SDS011;6358;50.760;0.282;2024-03-02T11:46:07;5.27;;;2.20;;
12585;SDS011;6358;50.760;0.282;2024-03-02T11:48:34;6.57;;;2.17;;
12585;SDS011;6358;50.760;0.282;2024-03-02T11:51:01;6.63;;;2.50;;
12585;SDS011;6358;50.760;0.282;2024-03-02T11:53:27;7.23;;;2.40;;
12585;SDS011;6358;50.760;0.282;2024-03-02T11:55:56;6.13;;;2.20;;
12585;SDS011;6358;50.760;0.282;2024-03-02T11:58:23;5.17;;;2.30;;
12585;SDS011;6358;50.760;0.282;2024-03-02T12:00:51;3.67;;;1.87;;
12585;SDS011;6358;50.760;0.282;2024-03-02T12:03:17;5.70;;;2.27;;
12585;SDS011;6358;50.760;0.282;2024-03-02T12:05:44;4.17;;;2.23;;
12585;SDS011;6358;50.760;0.282;2024-03-02T12:08:14;4.37;;;2.10;;
12585;SDS011;6358;50.760;0.282;2024-03-02T12:10:40;4.87;;;2.20;;
12585;SDS011;6358;50.760;0.282;2024-03-02T12:13:06;3.63;;;2.03;;
12585;SDS011;6358;50.760;0.282;2024-03-02T12:15:35;7.13;;;2.30;;
12585;SDS011;6358;50.760;0.282;2024-03-02T12:18:05;5.53;;;2.10;;
12585;SDS011;6358;50.760;0.282;2024-03-02T12:20:32;4.70;;;2.13;;
12585;SDS011;6358;50.760;0.282;2024-03-02T12:22:59;3.93;;;1.97;;
12585;SDS011;6358;50.760;0.282;2024-03-02T12:25:26;4.87;;;2.10;;
12585;SDS011;6358;50.760;0.282;2024-03-02T12:27:53;5.20;;;2.40;;
12585;SDS011;6358;50.760;0.282;2024-03-02T12:30:20;5.30;;;2.20;;
12585;SDS011;6358;50.760;0.282;2024-03-02T12:32:47;3.37;;;2.10;;
12585;SDS011;6358;50.760;0.282;2024-03-02T12:35:13;3.93;;;2.00;;
12585;SDS011;6358;50.760;0.282;2024-03-02T12:37:47;4.50;;;1.80;;
12585;SDS011;6358;50.760;0.282;2024-03-02T12:40:13;4.67;;;1.90;;
12585;SDS011;6358;50.760;0.282;2024-03-02T12:42:40;3.60;;;1.90;;
12585;SDS011;6358;50.760;0.282;2024-03-02T12:45:09;4.00;;;2.10;;
12585;SDS011;6358;50.760;0.282;2024-03-02T12:47:35;4.97;;;2.13;;
12585;SDS011;6358;50.760;0.282;2024-03-02T12:50:03;4.30;;;2.00;;
12585;SDS011;6358;50.760;0.282;2024-03-02T12:52:29;3.83;;;1.57;;
12585;SDS011;6358;50.760;0.282;2024-03-02T12:54:57;4.17;;;2.00;;
12585;SDS011;6358;50.760;0.282;2024-03-02T12:57:28;4.93;;;2.10;;
12585;SDS011;6358;50.760;0.282;2024-03-02T13:00:01;4.30;;;1.80;;
12585;SDS011;6358;50.760;0.282;2024-03-02T13:02:33;4.30;;;1.97;;
12585;SDS011;6358;50.760;0.282;2024-03-02T13:05:00;4.23;;;1.90;;
12585;SDS011;6358;50.760;0.282;2024-03-02T13:07:26;4.97;;;2.07;;
12585;SDS011;6358;50.760;0.282;2024-03-02T13:09:53;5.10;;;2.27;;
12585;SDS011;6358;50.760;0.282;2024-03-02T13:12:23;3.63;;;1.80;;
12585;SDS011;6358;50.760;0.282;2024-03-02T13:14:53;4.43;;;2.07;;
12585;SDS011;6358;50.760;0.282;2024-03-02T13:17:19;4.33;;;2.00;;
12585;SDS011;6358;50.760;0.282;2024-03-02T13:19:55;4.23;;;2.00;;
12585;SDS011;6358;50.760;0.282;2024-03-02T13:22:24;4.30;;;1.90;;
12585;SDS011;6358;50.760;0.282;2024-03-02T13:24:51;4.17;;;1.90;;
12585;SDS011;6358;50.760;0.282;2024-03-02T13:27:19;2.53;;;1.53;;
12585;SDS011;6358;50.760;0.282;2024-03-02T13:29:47;3.40;;;1.57;;
12585;SDS011;6358;50.760;0.282;2024-03-02T13:32:13;2.97;;;1.80;;
12585;SDS011;6358;50.760;0.282;2024-03-02T13:34:40;2.83;;;1.80;;
12585;SDS011;6358;50.760;0.282;2024-03-02T13:37:06;4.07;;;1.63;;
12585;SDS011;6358;50.760;0.282;2024-03-02T13:39:32;3.50;;;1.80;;
12585;SDS011;6358;50.760;0.282;2024-03-02T13:42:05;4.20;;;1.77;;
12585;SDS011;6358;50.760;0.282;2024-03-02T13:44:32;3.50;;;1.80;;
12585;SDS011;6358;50.760;0.282;2024-03-02T13:46:59;4.80;;;2.10;;
12585;SDS011;6358;50.760;0.282;2024-03-02T13:49:26;3.37;;;1.70;;
12585;SDS011;6358;50.760;0.282;2024-03-02T13:52:07;3.23;;;1.50;;
12585;SDS011;6358;50.760;0.282;2024-03-02T13:54:41;3.33;;;1.57;;
12585;SDS011;6358;50.760;0.282;2024-03-02T13:57:08;2.70;;;1.47;;
12585;SDS011;6358;50.760;0.282;2024-03-02T13:59:34;2.83;;;1.63;;
12585;SDS011;6358;50.760;0.282;2024-03-02T14:02:01;3.13;;;1.60;;
12585;SDS011;6358;50.760;0.282;2024-03-02T14:04:29;2.53;;;1.53;;
12585;SDS011;6358;50.760;0.282;2024-03-02T14:06:55;1.87;;;1.37;;
12585;SDS011;6358;50.760;0.282;2024-03-02T14:09:21;4.27;;;1.70;;
12585;SDS011;6358;50.760;0.282;2024-03-02T14:11:49;4.27;;;1.60;;
12585;SDS011;6358;50.760;0.282;2024-03-02T14:14:16;2.80;;;1.50;;
12585;SDS011;6358;50.760;0.282;2024-03-02T14:16:42;2.07;;;1.40;;
12585;SDS011;6358;50.760;0.282;2024-03-02T14:19:10;2.63;;;1.40;;
12585;SDS011;6358;50.760;0.282;2024-03-02T14:21:37;5.20;;;1.77;;
12585;SDS011;6358;50.760;0.282;2024-03-02T14:24:03;3.10;;;1.50;;
12585;SDS011;6358;50.760;0.282;2024-03-02T14:26:29;2.67;;;1.60;;
12585;SDS011;6358;50.760;0.282;2024-03-02T14:28:56;4.53;;;1.80;;
12585;SDS011;6358;50.760;0.282;2024-03-02T14:31:22;3.83;;;1.53;;
12585;SDS011;6358;50.760;0.282;2024-03-02T14:33:48;4.97;;;1.40;;
12585;SDS011;6358;50.760;0.282;2024-03-02T14:36:15;4.47;;;1.70;;
12585;SDS011;6358;50.760;0.282;2024-03-02T14:38:41;2.80;;;1.30;;
12585;SDS011;6358;50.760;0.282;2024-03-02T14:41:08;2.70;;;1.50;;
12585;SDS011;6358;50.760;0.282;2024-03-02T14:43:34;3.57;;;1.60;;
12585;SDS011;6358;50.760;0.282;2024-03-02T14:46:02;5.37;;;1.60;;
12585;SDS011;6358;50.760;0.282;2024-03-02T14:48:29;5.13;;;1.80;;
12585;SDS011;6358;50.760;0.282;2024-03-02T14:50:55;4.83;;;1.80;;
12585;SDS011;6358;50.760;0.282;2024-03-02T14:53:21;2.33;;;1.33;;
12585;SDS011;6358;50.760;0.282;2024-03-02T14:55:47;3.33;;;1.40;;
12585;SDS011;6358;50.760;0.282;2024-03-02T14:58:14;2.90;;;1.57;;
12585;SDS011;6358;50.760;0.282;2024-03-02T15:00:41;3.97;;;1.60;;
12585;SDS011;6358;50.760;0.282;2024-03-02T15:03:07;4.10;;;1.43;;